WetterOnline ( https://www.wetteronline.de )

Wetter aktuell Langen Brütz

Aktuelles Wetter: Schwerin (68m)

6-stündlich | Neueste Meldungen
Ortszeit Temperatur Wetter
Do, 01.10. 14:00 16.8° C wolkenlos
Do, 01.10. 8:00 10.3° C fast wolkenlos
Do, 01.10. 2:00 11.9° C wolkenlos
Mi, 30.09. 20:00 14.0° C wolkenlos
Mi, 30.09. 14:00 18.0° C fast wolkenlos
Mi, 30.09. 8:00 8.6° C wolkig
Mi, 30.09. 2:00 10.7° C bedeckt
Di, 29.09. 20:00 12.9° C wolkenlos
Ortszeit Temperatur Wetter
Do, 01.10. 19:30 15.3° C bedeckt
Do, 01.10. 19:20 15.3° C bedeckt
Do, 01.10. 19:10 14.9° C bedeckt
Do, 01.10. 19:00 15.5° C bewölkt
Do, 01.10. 18:50 15.5° C bewölkt
Do, 01.10. 18:40 15.6° C wolkig
Do, 01.10. 18:30 16.0° C wolkenlos
Do, 01.10. 18:00 16.8° C wolkenlos
Do, 01.10. 17:30 17.6° C wolkenlos
Do, 01.10. 17:00 17.8° C wolkenlos
Do, 01.10. 16:30 18.0° C wolkenlos
Ortszeit Relative Feuchte Sichtweite
Do, 01.10. 14:00 63% 40 km
Do, 01.10. 8:00 97% 6 km
Do, 01.10. 2:00 96% 22 km
Mi, 30.09. 20:00 82% 40 km
Mi, 30.09. 14:00 57% 45 km
Mi, 30.09. 8:00 98% 8 km
Mi, 30.09. 2:00 92% 35 km
Di, 29.09. 20:00 83% 35 km
Ortszeit Relative Feuchte Sichtweite
Do, 01.10. 19:30 80% 25 km
Do, 01.10. 19:20 80% -
Do, 01.10. 19:10 80% -
Do, 01.10. 19:00 76% 28 km
Do, 01.10. 18:50 76% -
Do, 01.10. 18:40 75% -
Do, 01.10. 18:30 72% 30 km
Do, 01.10. 18:00 66% 30 km
Do, 01.10. 17:30 61% 30 km
Do, 01.10. 17:00 56% 35 km
Do, 01.10. 16:30 55% 35 km
Ortszeit Niederschlagsmenge Niederschlagsart
Do, 01.10. 14:00 0.0 l/m2 in 6 Std. -
Do, 01.10. 8:00 0.0 l/m2 in 12 Std. -
Do, 01.10. 2:00 0.0 l/m2 in 6 Std. -
Mi, 30.09. 20:00 0.0 l/m2 in 12 Std. -
Mi, 30.09. 14:00 0.0 l/m2 in 6 Std. -
Mi, 30.09. 8:00 0.0 l/m2 in 12 Std. -
Mi, 30.09. 2:00 0.0 l/m2 in 6 Std. -
Di, 29.09. 20:00 0.0 l/m2 in 12 Std. -
Ortszeit Niederschlagsmenge Niederschlagsart
Do, 01.10. 19:30 0.0 l/m2 in 1 Std. -
Do, 01.10. 19:20 keine Meldung -
Do, 01.10. 19:10 keine Meldung -
Do, 01.10. 19:00 0.0 l/m2 in 1 Std. -
Do, 01.10. 18:50 keine Meldung -
Do, 01.10. 18:40 keine Meldung -
Do, 01.10. 18:30 0.0 l/m2 in 1 Std. -
Do, 01.10. 18:00 0.0 l/m2 in 1 Std. -
Do, 01.10. 17:30 0.0 l/m2 in 1 Std. -
Do, 01.10. 17:00 0.0 l/m2 in 1 Std. -
Do, 01.10. 16:30 0.0 l/m2 in 1 Std. -
Ortszeit Stärke Spitze Richtung
km/h Bft. km/h Grad Sektor
Do, 01.10. 14:00 15 3 30 110° O
Do, 01.10. 8:00 7 2 25 90° O
Do, 01.10. 2:00 11 2 18 100° O
Mi, 30.09. 20:00 7 2 18 110° O
Mi, 30.09. 14:00 7 2 18 180° S
Mi, 30.09. 8:00 4 1 14 180° S
Mi, 30.09. 2:00 4 1 11 120° SO
Di, 29.09. 20:00 4 1 25 150° SO
Ortszeit Stärke Spitze Richtung
km/h Bft. km/h Grad Sektor
Do, 01.10. 19:30 7 2 13 110° O
Do, 01.10. 19:20 7 2 - 110° O
Do, 01.10. 19:10 6 1 - 110° O
Do, 01.10. 19:00 7 2 22 110° O
Do, 01.10. 18:50 7 2 - 110° O
Do, 01.10. 18:40 7 2 - 110° O
Do, 01.10. 18:30 7 2 22 110° O
Do, 01.10. 18:00 9 2 26 120° SO
Do, 01.10. 17:30 7 2 25 120° SO
Do, 01.10. 17:00 11 2 25 120° SO
Do, 01.10. 16:30 13 3 26 120° SO
Ortszeit Untergrenze Bedeckung Gattung
total tief tief mittel hoch
Do, 01.10. 14:00 - 0/8 0/8 - - -
Do, 01.10. 8:00 60 m 1/8 1/8 - - -
Do, 01.10. 2:00 - 0/8 0/8 - - -
Mi, 30.09. 20:00 - 0/8 0/8 - - -
Mi, 30.09. 14:00 10500 m 1/8 0/8 - - -
Mi, 30.09. 8:00 3000 m 5/8 5/8 - - -
Mi, 30.09. 2:00 2100 m 8/8 8/8 - - -
Di, 29.09. 20:00 - 0/8 0/8 - - -
Ortszeit Bedeckungsgrad in Achtel und Wolkenuntergrenze
Do, 01.10. 19:30 8(3600m)
Do, 01.10. 19:20 8(3600m)
Do, 01.10. 19:10 8(3600m)
Do, 01.10. 19:00 7(3300m)
Do, 01.10. 18:50 7(3300m)
Do, 01.10. 18:40 5(3300m)
Do, 01.10. 18:30 3(3600m)
Do, 01.10. 18:00 keine Wolken
Do, 01.10. 17:30 keine Wolken
Do, 01.10. 17:00 keine Wolken
Do, 01.10. 16:30 keine Wolken
Ortszeit Luftdruck NN (hPa) Tendenz (hPa in 3 Std.)
Do, 01.10. 14:00 1006 - 2,3
Do, 01.10. 8:00 1010 - 1,2
Do, 01.10. 2:00 1013 - 1,5
Mi, 30.09. 20:00 1014 - 0,3
Mi, 30.09. 14:00 1016 - 1,0
Mi, 30.09. 8:00 1017 0,0
Mi, 30.09. 2:00 1017 - 0,3
Di, 29.09. 20:00 1017 + 1,0
Ortszeit Luftdruck NN (hPa) Tendenz (hPa in 3 Std.)
Do, 01.10. 19:30 1004 - 0,7
Do, 01.10. 19:20 1004 keine Meldung
Do, 01.10. 19:10 1004 keine Meldung
Do, 01.10. 19:00 1004 - 1,1
Do, 01.10. 18:50 1004 keine Meldung
Do, 01.10. 18:40 1004 keine Meldung
Do, 01.10. 18:30 1004 - 1,4
Do, 01.10. 18:00 1004 - 1,3
Do, 01.10. 17:30 1004 - 1,8
Do, 01.10. 17:00 1004 - 2,0
Do, 01.10. 16:30 1004 - 2,1
Ortszeit Schneehöhe (cm)
Do, 01.10. 14:00 0
Do, 01.10. 8:00 -
Do, 01.10. 2:00 -
Mi, 30.09. 20:00 -
Mi, 30.09. 14:00 -
Mi, 30.09. 8:00 -
Mi, 30.09. 2:00 -
Di, 29.09. 20:00 -
Ortszeit Schneehöhe (cm)
Do, 01.10. 19:30 0
Do, 01.10. 19:20 0
Do, 01.10. 19:10 0
Do, 01.10. 19:00 0
Do, 01.10. 18:50 0
Do, 01.10. 18:40 0
Do, 01.10. 18:30 0
Do, 01.10. 18:00 0
Do, 01.10. 17:30 0
Do, 01.10. 17:00 0
Do, 01.10. 16:30 0
Link zu dieser Seite / Seite empfehlen

Das Wetter in ...